sensor_id;sensor_type;location;lat;lon;timestamp;temperature;humidity
7694;DHT22;3889;48.162;11.510;2023-01-24T00:00:54;1.00;99.90
7694;DHT22;3889;48.162;11.510;2023-01-24T00:03:23;0.90;99.90
7694;DHT22;3889;48.162;11.510;2023-01-24T00:05:51;0.90;99.90
7694;DHT22;3889;48.162;11.510;2023-01-24T00:08:20;1.00;99.90
7694;DHT22;3889;48.162;11.510;2023-01-24T00:10:49;1.10;99.90
7694;DHT22;3889;48.162;11.510;2023-01-24T00:13:24;1.00;99.90
7694;DHT22;3889;48.162;11.510;2023-01-24T00:16:01;1.10;99.90
7694;DHT22;3889;48.162;11.510;2023-01-24T00:18:31;1.10;99.90
7694;DHT22;3889;48.162;11.510;2023-01-24T00:21:04;1.10;99.90
7694;DHT22;3889;48.162;11.510;2023-01-24T00:23:32;1.10;99.90
7694;DHT22;3889;48.162;11.510;2023-01-24T00:26:00;1.10;99.90
7694;DHT22;3889;48.162;11.510;2023-01-24T00:28:28;1.00;99.90
7694;DHT22;3889;48.162;11.510;2023-01-24T00:30:56;0.90;99.90
7694;DHT22;3889;48.162;11.510;2023-01-24T00:33:24;1.00;99.90
7694;DHT22;3889;48.162;11.510;2023-01-24T00:35:53;1.00;99.90
7694;DHT22;3889;48.162;11.510;2023-01-24T00:38:21;0.90;99.90
7694;DHT22;3889;48.162;11.510;2023-01-24T00:40:50;1.00;99.90
7694;DHT22;3889;48.162;11.510;2023-01-24T00:43:18;1.00;99.90
7694;DHT22;3889;48.162;11.510;2023-01-24T00:45:46;1.10;99.90
7694;DHT22;3889;48.162;11.510;2023-01-24T00:48:14;1.10;99.90
7694;DHT22;3889;48.162;11.510;2023-01-24T00:50:42;1.10;99.90
7694;DHT22;3889;48.162;11.510;2023-01-24T00:53:11;1.10;99.90
7694;DHT22;3889;48.162;11.510;2023-01-24T00:55:43;1.10;99.90
7694;DHT22;3889;48.162;11.510;2023-01-24T00:58:11;1.10;99.90
7694;DHT22;3889;48.162;11.510;2023-01-24T01:00:40;1.10;99.90
7694;DHT22;3889;48.162;11.510;2023-01-24T01:03:11;1.00;99.90
7694;DHT22;3889;48.162;11.510;2023-01-24T01:05:40;1.00;99.90
7694;DHT22;3889;48.162;11.510;2023-01-24T01:08:09;1.00;99.90
7694;DHT22;3889;48.162;11.510;2023-01-24T01:10:39;1.00;99.90
7694;DHT22;3889;48.162;11.510;2023-01-24T01:13:08;1.00;99.90
7694;DHT22;3889;48.162;11.510;2023-01-24T01:15:37;1.00;99.90
7694;DHT22;3889;48.162;11.510;2023-01-24T01:18:05;1.00;99.90
7694;DHT22;3889;48.162;11.510;2023-01-24T01:20:33;0.90;99.90
7694;DHT22;3889;48.162;11.510;2023-01-24T01:23:01;1.00;99.90
7694;DHT22;3889;48.162;11.510;2023-01-24T01:25:29;1.00;99.90
7694;DHT22;3889;48.162;11.510;2023-01-24T01:27:59;1.00;99.90
7694;DHT22;3889;48.162;11.510;2023-01-24T01:30:26;0.90;99.90
7694;DHT22;3889;48.162;11.510;2023-01-24T01:32:54;0.90;99.90
7694;DHT22;3889;48.162;11.510;2023-01-24T01:35:22;0.90;99.90
7694;DHT22;3889;48.162;11.510;2023-01-24T01:37:50;1.00;99.90
7694;DHT22;3889;48.162;11.510;2023-01-24T01:40:18;1.00;99.90
7694;DHT22;3889;48.162;11.510;2023-01-24T01:42:50;0.90;99.90
7694;DHT22;3889;48.162;11.510;2023-01-24T01:45:38;1.00;99.90
7694;DHT22;3889;48.162;11.510;2023-01-24T01:48:15;0.90;99.90
7694;DHT22;3889;48.162;11.510;2023-01-24T01:50:49;1.00;99.90
7694;DHT22;3889;48.162;11.510;2023-01-24T01:53:18;0.90;99.90
7694;DHT22;3889;48.162;11.510;2023-01-24T01:55:51;1.00;99.90
7694;DHT22;3889;48.162;11.510;2023-01-24T01:58:21;0.90;99.90
7694;DHT22;3889;48.162;11.510;2023-01-24T02:00:50;0.80;99.90
7694;DHT22;3889;48.162;11.510;2023-01-24T02:03:22;0.90;99.90
7694;DHT22;3889;48.162;11.510;2023-01-24T02:06:14;0.90;99.90
7694;DHT22;3889;48.162;11.510;2023-01-24T02:08:43;0.90;99.90
7694;DHT22;3889;48.162;11.510;2023-01-24T02:11:12;0.90;99.90
7694;DHT22;3889;48.162;11.510;2023-01-24T02:14:06;0.90;99.90
7694;DHT22;3889;48.162;11.510;2023-01-24T02:16:54;0.90;99.90
7694;DHT22;3889;48.162;11.510;2023-01-24T02:19:49;1.00;99.90
7694;DHT22;3889;48.162;11.510;2023-01-24T02:22:27;1.00;99.90
7694;DHT22;3889;48.162;11.510;2023-01-24T02:25:03;1.00;99.90
7694;DHT22;3889;48.162;11.510;2023-01-24T02:27:34;0.90;99.90
7694;DHT22;3889;48.162;11.510;2023-01-24T02:30:03;0.90;99.90
7694;DHT22;3889;48.162;11.510;2023-01-24T02:32:31;1.00;99.90
7694;DHT22;3889;48.162;11.510;2023-01-24T02:34:59;1.00;99.90
7694;DHT22;3889;48.162;11.510;2023-01-24T02:37:27;0.90;99.90
7694;DHT22;3889;48.162;11.510;2023-01-24T02:39:59;0.90;99.90
7694;DHT22;3889;48.162;11.510;2023-01-24T02:42:33;1.00;99.90
7694;DHT22;3889;48.162;11.510;2023-01-24T02:45:07;1.00;99.90
7694;DHT22;3889;48.162;11.510;2023-01-24T02:47:41;1.00;99.90
7694;DHT22;3889;48.162;11.510;2023-01-24T02:50:11;1.00;99.90
7694;DHT22;3889;48.162;11.510;2023-01-24T02:52:39;1.00;99.90
7694;DHT22;3889;48.162;11.510;2023-01-24T02:55:25;1.00;99.90
7694;DHT22;3889;48.162;11.510;2023-01-24T02:57:53;1.00;99.90
7694;DHT22;3889;48.162;11.510;2023-01-24T03:00:34;1.00;99.90
7694;DHT22;3889;48.162;11.510;2023-01-24T03:03:03;0.90;99.90
7694;DHT22;3889;48.162;11.510;2023-01-24T03:05:32;0.90;99.90
7694;DHT22;3889;48.162;11.510;2023-01-24T03:08:13;1.00;99.90
7694;DHT22;3889;48.162;11.510;2023-01-24T03:10:41;0.90;99.90
7694;DHT22;3889;48.162;11.510;2023-01-24T03:13:09;1.00;99.90
7694;DHT22;3889;48.162;11.510;2023-01-24T03:15:58;0.90;99.90
7694;DHT22;3889;48.162;11.510;2023-01-24T03:18:44;1.00;99.90
7694;DHT22;3889;48.162;11.510;2023-01-24T03:21:29;0.90;99.90
7694;DHT22;3889;48.162;11.510;2023-01-24T03:24:15;0.90;99.90
7694;DHT22;3889;48.162;11.510;2023-01-24T03:27:00;0.90;99.90
7694;DHT22;3889;48.162;11.510;2023-01-24T03:29:46;0.90;99.90
7694;DHT22;3889;48.162;11.510;2023-01-24T03:32:33;0.90;99.90
7694;DHT22;3889;48.162;11.510;2023-01-24T03:35:18;0.90;99.90
7694;DHT22;3889;48.162;11.510;2023-01-24T03:37:47;0.90;99.90
7694;DHT22;3889;48.162;11.510;2023-01-24T03:40:32;0.90;99.90
7694;DHT22;3889;48.162;11.510;2023-01-24T03:43:01;0.90;99.90
7694;DHT22;3889;48.162;11.510;2023-01-24T03:45:30;1.00;99.90
7694;DHT22;3889;48.162;11.510;2023-01-24T03:48:01;0.90;99.90
7694;DHT22;3889;48.162;11.510;2023-01-24T03:50:32;0.90;99.90
7694;DHT22;3889;48.162;11.510;2023-01-24T03:53:19;0.90;99.90
7694;DHT22;3889;48.162;11.510;2023-01-24T03:55:51;1.00;99.90
7694;DHT22;3889;48.162;11.510;2023-01-24T03:58:19;1.00;99.90
7694;DHT22;3889;48.162;11.510;2023-01-24T04:00:47;1.00;99.90
7694;DHT22;3889;48.162;11.510;2023-01-24T04:03:16;1.00;99.90
7694;DHT22;3889;48.162;11.510;2023-01-24T04:05:46;1.00;99.90
7694;DHT22;3889;48.162;11.510;2023-01-24T04:08:14;1.10;99.90
7694;DHT22;3889;48.162;11.510;2023-01-24T04:10:42;1.10;99.90
7694;DHT22;3889;48.162;11.510;2023-01-24T04:13:11;1.10;99.90
7694;DHT22;3889;48.162;11.510;2023-01-24T04:15:39;1.10;99.90
7694;DHT22;3889;48.162;11.510;2023-01-24T04:18:07;1.00;99.90
7694;DHT22;3889;48.162;11.510;2023-01-24T04:20:36;1.00;99.90
7694;DHT22;3889;48.162;11.510;2023-01-24T04:23:06;1.00;99.90
7694;DHT22;3889;48.162;11.510;2023-01-24T04:25:34;1.00;99.90
7694;DHT22;3889;48.162;11.510;2023-01-24T04:28:02;1.10;99.90
7694;DHT22;3889;48.162;11.510;2023-01-24T04:30:30;1.00;99.90
7694;DHT22;3889;48.162;11.510;2023-01-24T04:32:58;1.00;99.90
7694;DHT22;3889;48.162;11.510;2023-01-24T04:35:28;1.00;99.90
7694;DHT22;3889;48.162;11.510;2023-01-24T04:38:01;1.00;99.90
7694;DHT22;3889;48.162;11.510;2023-01-24T04:40:29;1.00;99.90
7694;DHT22;3889;48.162;11.510;2023-01-24T04:42:57;1.10;99.90
7694;DHT22;3889;48.162;11.510;2023-01-24T04:45:25;1.10;99.90
7694;DHT22;3889;48.162;11.510;2023-01-24T04:47:53;1.10;99.90
7694;DHT22;3889;48.162;11.510;2023-01-24T04:50:21;1.00;99.90
7694;DHT22;3889;48.162;11.510;2023-01-24T04:52:49;1.00;99.90
7694;DHT22;3889;48.162;11.510;2023-01-24T04:55:18;1.00;99.90
7694;DHT22;3889;48.162;11.510;2023-01-24T04:57:47;1.00;99.90
7694;DHT22;3889;48.162;11.510;2023-01-24T05:00:16;1.10;99.90
7694;DHT22;3889;48.162;11.510;2023-01-24T05:02:43;1.10;99.90
7694;DHT22;3889;48.162;11.510;2023-01-24T05:05:11;1.00;99.90
7694;DHT22;3889;48.162;11.510;2023-01-24T05:07:39;1.00;99.90
7694;DHT22;3889;48.162;11.510;2023-01-24T05:10:08;1.10;99.90
7694;DHT22;3889;48.162;11.510;2023-01-24T05:12:37;1.10;99.90
7694;DHT22;3889;48.162;11.510;2023-01-24T05:15:06;1.10;99.90
7694;DHT22;3889;48.162;11.510;2023-01-24T05:17:34;1.10;99.90
7694;DHT22;3889;48.162;11.510;2023-01-24T05:20:02;1.10;99.90
7694;DHT22;3889;48.162;11.510;2023-01-24T05:22:30;1.10;99.90
7694;DHT22;3889;48.162;11.510;2023-01-24T05:24:58;1.10;99.90
7694;DHT22;3889;48.162;11.510;2023-01-24T05:27:26;1.10;99.90
7694;DHT22;3889;48.162;11.510;2023-01-24T05:29:55;1.10;99.90
7694;DHT22;3889;48.162;11.510;2023-01-24T05:32:23;1.10;99.90
7694;DHT22;3889;48.162;11.510;2023-01-24T05:34:51;1.10;99.90
7694;DHT22;3889;48.162;11.510;2023-01-24T05:37:19;1.10;99.90
7694;DHT22;3889;48.162;11.510;2023-01-24T05:39:46;1.20;99.90
7694;DHT22;3889;48.162;11.510;2023-01-24T05:42:14;1.10;99.90
7694;DHT22;3889;48.162;11.510;2023-01-24T05:44:42;1.10;99.90
7694;DHT22;3889;48.162;11.510;2023-01-24T05:47:11;1.20;99.90
7694;DHT22;3889;48.162;11.510;2023-01-24T05:49:39;1.20;99.90
7694;DHT22;3889;48.162;11.510;2023-01-24T05:52:07;1.20;99.90
7694;DHT22;3889;48.162;11.510;2023-01-24T05:54:35;1.20;99.90
7694;DHT22;3889;48.162;11.510;2023-01-24T05:57:03;1.20;99.90
7694;DHT22;3889;48.162;11.510;2023-01-24T05:59:31;1.20;99.90
7694;DHT22;3889;48.162;11.510;2023-01-24T06:01:59;1.20;99.90
7694;DHT22;3889;48.162;11.510;2023-01-24T06:04:29;1.20;99.90
7694;DHT22;3889;48.162;11.510;2023-01-24T06:06:57;1.20;99.90
7694;DHT22;3889;48.162;11.510;2023-01-24T06:09:25;1.10;99.90
7694;DHT22;3889;48.162;11.510;2023-01-24T06:11:53;1.10;99.90
7694;DHT22;3889;48.162;11.510;2023-01-24T06:14:21;1.20;99.90
7694;DHT22;3889;48.162;11.510;2023-01-24T06:16:48;1.20;99.90
7694;DHT22;3889;48.162;11.510;2023-01-24T06:19:16;1.20;99.90
7694;DHT22;3889;48.162;11.510;2023-01-24T06:21:47;1.20;99.90
7694;DHT22;3889;48.162;11.510;2023-01-24T06:24:18;1.20;99.90
7694;DHT22;3889;48.162;11.510;2023-01-24T06:26:47;1.30;99.90
7694;DHT22;3889;48.162;11.510;2023-01-24T06:29:17;1.30;99.90
7694;DHT22;3889;48.162;11.510;2023-01-24T06:31:54;1.20;99.90
7694;DHT22;3889;48.162;11.510;2023-01-24T06:34:40;1.20;99.90
7694;DHT22;3889;48.162;11.510;2023-01-24T06:37:19;1.20;99.90
7694;DHT22;3889;48.162;11.510;2023-01-24T06:39:50;1.20;99.90
7694;DHT22;3889;48.162;11.510;2023-01-24T06:42:20;1.20;99.90
7694;DHT22;3889;48.162;11.510;2023-01-24T06:44:51;1.20;99.90
7694;DHT22;3889;48.162;11.510;2023-01-24T06:47:19;1.20;99.90
7694;DHT22;3889;48.162;11.510;2023-01-24T06:49:46;1.20;99.90
7694;DHT22;3889;48.162;11.510;2023-01-24T06:52:16;1.10;99.90
7694;DHT22;3889;48.162;11.510;2023-01-24T06:54:43;1.20;99.90
7694;DHT22;3889;48.162;11.510;2023-01-24T06:57:12;1.20;99.90
7694;DHT22;3889;48.162;11.510;2023-01-24T06:59:40;1.20;99.90
7694;DHT22;3889;48.162;11.510;2023-01-24T07:02:09;1.30;99.90
7694;DHT22;3889;48.162;11.510;2023-01-24T07:04:37;1.30;99.90
7694;DHT22;3889;48.162;11.510;2023-01-24T07:07:05;1.20;99.90
7694;DHT22;3889;48.162;11.510;2023-01-24T07:09:34;1.20;99.90
7694;DHT22;3889;48.162;11.510;2023-01-24T07:12:02;1.30;99.90
7694;DHT22;3889;48.162;11.510;2023-01-24T07:14:30;1.30;99.90
7694;DHT22;3889;48.162;11.510;2023-01-24T07:16:59;1.20;99.90
7694;DHT22;3889;48.162;11.510;2023-01-24T07:19:27;1.20;99.90
7694;DHT22;3889;48.162;11.510;2023-01-24T07:21:55;1.30;99.90
7694;DHT22;3889;48.162;11.510;2023-01-24T07:24:25;1.30;99.90
7694;DHT22;3889;48.162;11.510;2023-01-24T07:26:55;1.20;99.90
7694;DHT22;3889;48.162;11.510;2023-01-24T07:29:23;1.20;99.90
7694;DHT22;3889;48.162;11.510;2023-01-24T07:31:52;1.30;99.90
7694;DHT22;3889;48.162;11.510;2023-01-24T07:34:20;1.30;99.90
7694;DHT22;3889;48.162;11.510;2023-01-24T07:36:48;1.30;99.90
7694;DHT22;3889;48.162;11.510;2023-01-24T07:39:16;1.30;99.90
7694;DHT22;3889;48.162;11.510;2023-01-24T07:41:44;1.40;99.90
7694;DHT22;3889;48.162;11.510;2023-01-24T07:44:14;1.40;99.90
7694;DHT22;3889;48.162;11.510;2023-01-24T07:46:41;1.40;99.90
7694;DHT22;3889;48.162;11.510;2023-01-24T07:49:09;1.40;99.90
7694;DHT22;3889;48.162;11.510;2023-01-24T07:51:37;1.40;99.90
7694;DHT22;3889;48.162;11.510;2023-01-24T07:54:06;1.40;99.90
7694;DHT22;3889;48.162;11.510;2023-01-24T07:56:36;1.40;99.90
7694;DHT22;3889;48.162;11.510;2023-01-24T07:59:04;1.40;99.90
7694;DHT22;3889;48.162;11.510;2023-01-24T08:01:33;1.40;99.90
7694;DHT22;3889;48.162;11.510;2023-01-24T08:04:01;1.50;99.90
7694;DHT22;3889;48.162;11.510;2023-01-24T08:06:29;1.50;99.90
7694;DHT22;3889;48.162;11.510;2023-01-24T08:08:56;1.50;99.90
7694;DHT22;3889;48.162;11.510;2023-01-24T08:11:24;1.50;99.90
7694;DHT22;3889;48.162;11.510;2023-01-24T08:13:52;1.50;99.90
7694;DHT22;3889;48.162;11.510;2023-01-24T08:16:21;1.50;99.90
7694;DHT22;3889;48.162;11.510;2023-01-24T08:18:51;1.50;99.90
7694;DHT22;3889;48.162;11.510;2023-01-24T08:21:19;1.60;99.90
7694;DHT22;3889;48.162;11.510;2023-01-24T08:23:47;1.60;99.90
7694;DHT22;3889;48.162;11.510;2023-01-24T08:26:15;1.60;99.90
7694;DHT22;3889;48.162;11.510;2023-01-24T08:28:43;1.60;99.90
7694;DHT22;3889;48.162;11.510;2023-01-24T08:31:11;1.60;99.90
7694;DHT22;3889;48.162;11.510;2023-01-24T08:33:39;1.70;99.90
7694;DHT22;3889;48.162;11.510;2023-01-24T08:36:08;1.80;99.90
7694;DHT22;3889;48.162;11.510;2023-01-24T08:38:36;1.60;99.90
7694;DHT22;3889;48.162;11.510;2023-01-24T08:41:04;1.60;99.90
7694;DHT22;3889;48.162;11.510;2023-01-24T08:43:35;1.60;99.90
7694;DHT22;3889;48.162;11.510;2023-01-24T08:46:03;1.70;99.90
7694;DHT22;3889;48.162;11.510;2023-01-24T08:48:31;1.80;99.90
7694;DHT22;3889;48.162;11.510;2023-01-24T08:51:02;1.80;99.90
7694;DHT22;3889;48.162;11.510;2023-01-24T08:53:31;1.80;99.90
7694;DHT22;3889;48.162;11.510;2023-01-24T08:56:01;1.80;99.90
7694;DHT22;3889;48.162;11.510;2023-01-24T08:58:29;1.80;99.90
7694;DHT22;3889;48.162;11.510;2023-01-24T09:00:58;1.80;99.90
7694;DHT22;3889;48.162;11.510;2023-01-24T09:03:26;1.70;99.90
7694;DHT22;3889;48.162;11.510;2023-01-24T09:05:56;1.80;99.90
7694;DHT22;3889;48.162;11.510;2023-01-24T09:08:24;1.70;99.90
7694;DHT22;3889;48.162;11.510;2023-01-24T09:10:53;1.80;99.90
7694;DHT22;3889;48.162;11.510;2023-01-24T09:13:21;1.90;99.90
7694;DHT22;3889;48.162;11.510;2023-01-24T09:15:49;1.80;99.90
7694;DHT22;3889;48.162;11.510;2023-01-24T09:18:19;1.80;99.90
7694;DHT22;3889;48.162;11.510;2023-01-24T09:20:47;1.80;99.90
7694;DHT22;3889;48.162;11.510;2023-01-24T09:23:14;1.70;99.90
7694;DHT22;3889;48.162;11.510;2023-01-24T09:25:49;1.80;99.90
7694;DHT22;3889;48.162;11.510;2023-01-24T09:28:18;1.80;99.90
7694;DHT22;3889;48.162;11.510;2023-01-24T09:30:47;1.80;99.90
7694;DHT22;3889;48.162;11.510;2023-01-24T09:33:16;1.80;99.90
7694;DHT22;3889;48.162;11.510;2023-01-24T09:35:51;1.80;99.90
7694;DHT22;3889;48.162;11.510;2023-01-24T09:38:19;1.80;99.90
7694;DHT22;3889;48.162;11.510;2023-01-24T09:40:54;1.80;99.90
7694;DHT22;3889;48.162;11.510;2023-01-24T09:43:41;1.80;99.90
7694;DHT22;3889;48.162;11.510;2023-01-24T09:46:23;1.80;99.90
7694;DHT22;3889;48.162;11.510;2023-01-24T09:49:00;1.80;99.90
7694;DHT22;3889;48.162;11.510;2023-01-24T09:51:31;1.80;99.90
7694;DHT22;3889;48.162;11.510;2023-01-24T09:54:02;1.80;99.90
7694;DHT22;3889;48.162;11.510;2023-01-24T09:56:35;1.90;99.90
7694;DHT22;3889;48.162;11.510;2023-01-24T09:59:13;1.90;99.90
7694;DHT22;3889;48.162;11.510;2023-01-24T10:01:44;2.00;99.90
7694;DHT22;3889;48.162;11.510;2023-01-24T10:04:16;1.90;99.90
7694;DHT22;3889;48.162;11.510;2023-01-24T10:07:05;2.00;99.90
7694;DHT22;3889;48.162;11.510;2023-01-24T10:09:46;2.00;99.90
7694;DHT22;3889;48.162;11.510;2023-01-24T10:12:30;1.90;99.90
7694;DHT22;3889;48.162;11.510;2023-01-24T10:15:13;1.90;99.90
7694;DHT22;3889;48.162;11.510;2023-01-24T10:18:02;2.00;99.90
7694;DHT22;3889;48.162;11.510;2023-01-24T10:23:32;2.00;99.90
7694;DHT22;3889;48.162;11.510;2023-01-24T10:26:05;2.00;99.90
7694;DHT22;3889;48.162;11.510;2023-01-24T10:28:39;2.00;99.90
7694;DHT22;3889;48.162;11.510;2023-01-24T10:31:11;2.00;99.90
7694;DHT22;3889;48.162;11.510;2023-01-24T10:33:44;2.10;99.90
7694;DHT22;3889;48.162;11.510;2023-01-24T10:36:19;2.00;99.90
7694;DHT22;3889;48.162;11.510;2023-01-24T10:38:50;2.00;99.90
7694;DHT22;3889;48.162;11.510;2023-01-24T10:41:20;2.00;99.90
7694;DHT22;3889;48.162;11.510;2023-01-24T10:43:53;2.00;99.90
7694;DHT22;3889;48.162;11.510;2023-01-24T10:46:41;2.00;99.90
7694;DHT22;3889;48.162;11.510;2023-01-24T10:49:16;2.00;99.90
7694;DHT22;3889;48.162;11.510;2023-01-24T10:52:07;2.00;99.90
7694;DHT22;3889;48.162;11.510;2023-01-24T10:54:44;2.00;99.90
7694;DHT22;3889;48.162;11.510;2023-01-24T10:57:29;2.00;99.90
7694;DHT22;3889;48.162;11.510;2023-01-24T11:00:03;2.00;99.90
7694;DHT22;3889;48.162;11.510;2023-01-24T11:02:33;1.90;99.90
7694;DHT22;3889;48.162;11.510;2023-01-24T11:05:04;2.00;99.90
7694;DHT22;3889;48.162;11.510;2023-01-24T11:07:35;2.10;99.90
7694;DHT22;3889;48.162;11.510;2023-01-24T11:10:17;2.00;99.90
7694;DHT22;3889;48.162;11.510;2023-01-24T11:12:50;2.10;99.90
7694;DHT22;3889;48.162;11.510;2023-01-24T11:15:24;2.00;99.90
7694;DHT22;3889;48.162;11.510;2023-01-24T11:17:56;2.10;99.90
7694;DHT22;3889;48.162;11.510;2023-01-24T11:20:30;2.00;99.90
7694;DHT22;3889;48.162;11.510;2023-01-24T11:23:10;2.20;99.90
7694;DHT22;3889;48.162;11.510;2023-01-24T11:25:51;2.00;99.90
7694;DHT22;3889;48.162;11.510;2023-01-24T11:28:23;2.10;99.90
7694;DHT22;3889;48.162;11.510;2023-01-24T11:30:52;1.90;99.90
7694;DHT22;3889;48.162;11.510;2023-01-24T11:33:36;2.00;99.90
7694;DHT22;3889;48.162;11.510;2023-01-24T11:36:18;1.90;99.90
7694;DHT22;3889;48.162;11.510;2023-01-24T11:38:49;2.00;99.90
7694;DHT22;3889;48.162;11.510;2023-01-24T11:41:25;2.00;99.90
7694;DHT22;3889;48.162;11.510;2023-01-24T11:44:16;2.10;99.90
7694;DHT22;3889;48.162;11.510;2023-01-24T11:46:53;2.10;99.90
7694;DHT22;3889;48.162;11.510;2023-01-24T11:49:45;2.10;99.90
7694;DHT22;3889;48.162;11.510;2023-01-24T11:52:31;2.10;99.90
7694;DHT22;3889;48.162;11.510;2023-01-24T11:55:12;2.00;99.90
7694;DHT22;3889;48.162;11.510;2023-01-24T11:57:48;2.10;99.90
7694;DHT22;3889;48.162;11.510;2023-01-24T12:00:24;2.10;99.90
7694;DHT22;3889;48.162;11.510;2023-01-24T12:06:20;2.10;99.90
7694;DHT22;3889;48.162;11.510;2023-01-24T12:09:02;2.20;99.90
7694;DHT22;3889;48.162;11.510;2023-01-24T12:11:38;2.20;99.90
7694;DHT22;3889;48.162;11.510;2023-01-24T12:14:42;2.10;99.90
7694;DHT22;3889;48.162;11.510;2023-01-24T12:17:27;2.20;99.90
7694;DHT22;3889;48.162;11.510;2023-01-24T12:20:15;2.20;99.90
7694;DHT22;3889;48.162;11.510;2023-01-24T12:23:02;2.20;99.90
7694;DHT22;3889;48.162;11.510;2023-01-24T12:25:33;2.30;99.90
7694;DHT22;3889;48.162;11.510;2023-01-24T12:28:05;2.20;99.90
7694;DHT22;3889;48.162;11.510;2023-01-24T12:30:37;2.20;99.90
7694;DHT22;3889;48.162;11.510;2023-01-24T12:33:17;2.30;99.90
7694;DHT22;3889;48.162;11.510;2023-01-24T12:35:51;2.30;99.90
7694;DHT22;3889;48.162;11.510;2023-01-24T12:38:25;2.30;99.90
7694;DHT22;3889;48.162;11.510;2023-01-24T12:40:58;2.30;99.90
7694;DHT22;3889;48.162;11.510;2023-01-24T12:43:31;2.30;99.90
7694;DHT22;3889;48.162;11.510;2023-01-24T12:46:06;2.30;99.90
7694;DHT22;3889;48.162;11.510;2023-01-24T12:48:40;2.40;99.90
7694;DHT22;3889;48.162;11.510;2023-01-24T12:51:18;2.40;99.90
7694;DHT22;3889;48.162;11.510;2023-01-24T12:54:06;2.40;99.90
7694;DHT22;3889;48.162;11.510;2023-01-24T12:56:44;2.40;99.90
7694;DHT22;3889;48.162;11.510;2023-01-24T12:59:18;2.50;99.90
7694;DHT22;3889;48.162;11.510;2023-01-24T13:05:05;2.40;99.90
7694;DHT22;3889;48.162;11.510;2023-01-24T13:07:47;2.40;99.90
7694;DHT22;3889;48.162;11.510;2023-01-24T13:10:24;2.50;99.90
7694;DHT22;3889;48.162;11.510;2023-01-24T13:12:56;2.30;99.90
7694;DHT22;3889;48.162;11.510;2023-01-24T13:15:29;2.40;99.90
7694;DHT22;3889;48.162;11.510;2023-01-24T13:18:12;2.40;99.90
7694;DHT22;3889;48.162;11.510;2023-01-24T13:20:57;2.50;99.90
7694;DHT22;3889;48.162;11.510;2023-01-24T13:23:41;2.50;99.90
7694;DHT22;3889;48.162;11.510;2023-01-24T13:26:56;2.40;99.90
7694;DHT22;3889;48.162;11.510;2023-01-24T13:29:54;2.30;99.90
7694;DHT22;3889;48.162;11.510;2023-01-24T13:32:27;2.20;99.90
7694;DHT22;3889;48.162;11.510;2023-01-24T13:34:57;2.30;99.90
7694;DHT22;3889;48.162;11.510;2023-01-24T13:37:28;2.30;99.90
7694;DHT22;3889;48.162;11.510;2023-01-24T13:40:00;2.20;99.90
7694;DHT22;3889;48.162;11.510;2023-01-24T13:42:35;2.20;99.90
7694;DHT22;3889;48.162;11.510;2023-01-24T13:45:45;2.20;99.90
7694;DHT22;3889;48.162;11.510;2023-01-24T13:51:41;2.20;99.90
7694;DHT22;3889;48.162;11.510;2023-01-24T13:57:17;2.20;99.90
7694;DHT22;3889;48.162;11.510;2023-01-24T14:00:13;2.20;99.90
7694;DHT22;3889;48.162;11.510;2023-01-24T14:02:44;2.10;99.90
7694;DHT22;3889;48.162;11.510;2023-01-24T14:05:42;2.10;99.90
7694;DHT22;3889;48.162;11.510;2023-01-24T14:11:34;2.10;99.90
7694;DHT22;3889;48.162;11.510;2023-01-24T14:14:24;2.20;99.90
7694;DHT22;3889;48.162;11.510;2023-01-24T14:20:00;2.20;99.90
7694;DHT22;3889;48.162;11.510;2023-01-24T14:22:38;2.20;99.90
7694;DHT22;3889;48.162;11.510;2023-01-24T14:25:32;2.20;99.90
7694;DHT22;3889;48.162;11.510;2023-01-24T14:28:11;2.30;99.90
7694;DHT22;3889;48.162;11.510;2023-01-24T14:30:44;2.20;99.90
7694;DHT22;3889;48.162;11.510;2023-01-24T14:33:23;2.10;99.90
7694;DHT22;3889;48.162;11.510;2023-01-24T14:36:00;2.10;99.90
7694;DHT22;3889;48.162;11.510;2023-01-24T14:38:28;2.10;99.90
7694;DHT22;3889;48.162;11.510;2023-01-24T14:40:57;2.10;99.90
7694;DHT22;3889;48.162;11.510;2023-01-24T14:43:33;2.10;99.90
7694;DHT22;3889;48.162;11.510;2023-01-24T14:46:11;2.10;99.90
7694;DHT22;3889;48.162;11.510;2023-01-24T14:48:41;2.20;99.90
7694;DHT22;3889;48.162;11.510;2023-01-24T14:51:16;2.20;99.90
7694;DHT22;3889;48.162;11.510;2023-01-24T14:53:48;2.20;99.90
7694;DHT22;3889;48.162;11.510;2023-01-24T14:56:16;2.20;99.90
7694;DHT22;3889;48.162;11.510;2023-01-24T14:58:45;2.20;99.90
7694;DHT22;3889;48.162;11.510;2023-01-24T15:01:24;2.10;99.90
7694;DHT22;3889;48.162;11.510;2023-01-24T15:03:55;2.10;99.90
7694;DHT22;3889;48.162;11.510;2023-01-24T15:06:24;2.10;99.90
7694;DHT22;3889;48.162;11.510;2023-01-24T15:08:56;2.10;99.90
7694;DHT22;3889;48.162;11.510;2023-01-24T15:11:27;2.10;99.90
7694;DHT22;3889;48.162;11.510;2023-01-24T15:13:58;2.10;99.90
7694;DHT22;3889;48.162;11.510;2023-01-24T15:16:33;2.10;99.90
7694;DHT22;3889;48.162;11.510;2023-01-24T15:19:04;2.10;99.90
7694;DHT22;3889;48.162;11.510;2023-01-24T15:21:36;2.00;99.90
7694;DHT22;3889;48.162;11.510;2023-01-24T15:24:12;2.00;99.90
7694;DHT22;3889;48.162;11.510;2023-01-24T15:26:44;2.10;99.90
7694;DHT22;3889;48.162;11.510;2023-01-24T15:29:39;2.10;99.90
7694;DHT22;3889;48.162;11.510;2023-01-24T15:32:22;2.10;99.90
7694;DHT22;3889;48.162;11.510;2023-01-24T15:34:51;2.10;99.90
7694;DHT22;3889;48.162;11.510;2023-01-24T15:37:19;2.00;99.90
7694;DHT22;3889;48.162;11.510;2023-01-24T15:39:47;2.00;99.90
7694;DHT22;3889;48.162;11.510;2023-01-24T15:42:22;1.90;99.90
7694;DHT22;3889;48.162;11.510;2023-01-24T15:45:16;2.00;99.90
7694;DHT22;3889;48.162;11.510;2023-01-24T15:47:44;2.00;99.90
7694;DHT22;3889;48.162;11.510;2023-01-24T15:50:18;2.00;99.90
7694;DHT22;3889;48.162;11.510;2023-01-24T15:53:22;2.00;99.90
7694;DHT22;3889;48.162;11.510;2023-01-24T15:55:50;2.00;99.90
7694;DHT22;3889;48.162;11.510;2023-01-24T15:58:19;2.00;99.90
7694;DHT22;3889;48.162;11.510;2023-01-24T16:00:51;2.00;99.90
7694;DHT22;3889;48.162;11.510;2023-01-24T16:03:19;2.10;99.90
7694;DHT22;3889;48.162;11.510;2023-01-24T16:05:50;2.10;99.90
7694;DHT22;3889;48.162;11.510;2023-01-24T16:08:18;2.10;99.90
7694;DHT22;3889;48.162;11.510;2023-01-24T16:10:46;2.10;99.90
7694;DHT22;3889;48.162;11.510;2023-01-24T16:13:25;2.10;99.90
7694;DHT22;3889;48.162;11.510;2023-01-24T16:15:56;2.10;99.90
7694;DHT22;3889;48.162;11.510;2023-01-24T16:18:25;2.10;99.90
7694;DHT22;3889;48.162;11.510;2023-01-24T16:20:54;2.10;99.90
7694;DHT22;3889;48.162;11.510;2023-01-24T16:23:22;2.10;99.90
7694;DHT22;3889;48.162;11.510;2023-01-24T16:25:54;2.10;99.90
7694;DHT22;3889;48.162;11.510;2023-01-24T16:28:24;2.10;99.90
7694;DHT22;3889;48.162;11.510;2023-01-24T16:30:58;2.10;99.90
7694;DHT22;3889;48.162;11.510;2023-01-24T16:33:27;2.10;99.90
7694;DHT22;3889;48.162;11.510;2023-01-24T16:35:57;2.20;99.90
7694;DHT22;3889;48.162;11.510;2023-01-24T16:38:25;2.20;99.90
7694;DHT22;3889;48.162;11.510;2023-01-24T16:40:53;2.20;99.90
7694;DHT22;3889;48.162;11.510;2023-01-24T16:43:21;2.20;99.90
7694;DHT22;3889;48.162;11.510;2023-01-24T16:45:51;2.10;99.90
7694;DHT22;3889;48.162;11.510;2023-01-24T16:48:19;2.10;99.90
7694;DHT22;3889;48.162;11.510;2023-01-24T16:50:47;2.10;99.90
7694;DHT22;3889;48.162;11.510;2023-01-24T16:53:16;2.00;99.90
7694;DHT22;3889;48.162;11.510;2023-01-24T16:55:44;2.00;99.90
7694;DHT22;3889;48.162;11.510;2023-01-24T16:58:21;2.10;99.90
7694;DHT22;3889;48.162;11.510;2023-01-24T17:00:49;2.10;99.90